KOQT  Oak Ridge Airport

Add Bookmark

Tennessee, United States

Status
Operational
Latitude Longitude
36° 1' 12" N 84° 13' 48" W
36.020000 -84.230000
Local (DST -4) UTC (GMT -5)
Aug 30, 2014 10:13 Aug 31, 2014 02:13
Sunrise-Sunset Local UTC
Begin Civil Twilight 06:40 10:40
Sunrise 07:06 11:06
Sunset 08:08 00:08
End Civil Twilight 08:34 00:34

Current Weather

METAR Observed IFR
KOQT 310153Z AUTO 27003KT 2 1/2SM RA BR FEW070 BKN090 OVC110 21/21 A3016 Sun, Aug 31, 2014 @ 01:53 UTC
(20 Minutes ago)
Instrument Flight Rules
Wind Visibility Clouds Conditions
270° at 3 knots (3 mph) 2 1/2 statute miles
  • Few at 7,000' AGL
  • Broken at 9,000' AGL
  • Overcast at 11,000' AGL
  • Rain
  • Mist
Temperatures Readings Precipitation
Current Temp 21°C (70°F)
Dewpoint 21°C (70°F)
Humidity 100%
Altimeter 30.16"Hg
Sea Level Pressure 1019.9mb
Field Elevation 908.79'
Current Rain 0.98"

Additional weather within a 50nm radius of KOQT

Map ICAO Location
KTYS 17nm S (137°)
KMMI 40.6nm S (204°)
KCSV 41.7nm W (265°)
1A6 42.7nm N (034°)

24 Hour Weather History

Loading
-

24 Hour Weather Graphs

Loading
-

CheckWX.com is intended as a tool to help pilots better visualize weather data. It is not intended as a substitute for an official weather briefing obtained from a Flight Service Station. CheckWX.com does not meet the FAA requirements for an official pre-flight weather briefing. Therefore, it's important that pilots still call and obtain an official FSS pre-flight weather briefing.